Time;durP1;ratioP1;P1;durP2;ratioP2;P2;SDS_P1;SDS_P2;PMS_P1;PMS_P2;Temp;Humidity;BMP_temperature;BMP_pressure;BME280_temperature;BME280_humidity;BME280_pressure;Samples;Min_cycle;Max_cycle;Signal;HPM_P1;HPM_P2
2024/02/02 00:01:04;;;;;;;9.35;5.47;;;;;;;4.80;39.59;95456.19;5045785;28;20080;-77
2024/02/02 00:03:30;;;;;;;10.68;5.97;;;;;;;4.78;39.61;95466.72;5046631;28;20029;-77
2024/02/02 00:05:55;;;;;;;11.52;5.75;;;;;;;4.86;39.53;95460.09;5046020;28;20025;-76
2024/02/02 00:08:21;;;;;;;7.35;4.75;;;;;;;4.94;39.53;95463.63;5029830;28;20040;-76
2024/02/02 00:10:46;;;;;;;8.23;4.75;;;;;;;4.96;39.91;95459.34;5046190;28;20131;-77
2024/02/02 00:13:12;;;;;;;8.45;4.88;;;;;;;4.98;40.17;95462.44;5047542;28;20091;-77
2024/02/02 00:15:38;;;;;;;10.48;5.35;;;;;;;5.00;39.93;95460.13;5030122;28;20468;-77
2024/02/02 00:18:03;;;;;;;8.48;4.63;;;;;;;5.14;39.95;95461.31;5045633;28;20067;-77
2024/02/02 00:20:29;;;;;;;8.48;4.53;;;;;;;5.13;39.55;95457.81;5047902;28;20029;-77
2024/02/02 00:22:54;;;;;;;10.20;4.75;;;;;;;5.20;39.53;95457.78;5046790;28;20040;-78
2024/02/02 00:25:20;;;;;;;6.85;4.60;;;;;;;5.25;39.23;95462.88;5047548;28;20133;-76
2024/02/02 00:27:45;;;;;;;8.52;4.80;;;;;;;5.24;39.58;95453.13;5047185;28;20033;-78
2024/02/02 00:30:11;;;;;;;7.30;4.07;;;;;;;5.21;39.63;95459.34;5047251;28;20028;-76
2024/02/02 00:32:36;;;;;;;6.03;4.55;;;;;;;5.24;39.70;95446.91;5046093;28;20033;-76
2024/02/02 00:35:03;;;;;;;8.30;4.88;;;;;;;5.32;39.38;95453.91;5027898;28;20044;-77
2024/02/02 00:37:28;;;;;;;9.48;5.07;;;;;;;5.36;39.13;95462.88;5046327;28;20475;-77
2024/02/02 00:39:54;;;;;;;7.78;4.57;;;;;;;5.41;38.98;95462.47;5046555;28;20024;-76
2024/02/02 00:42:20;;;;;;;7.18;4.50;;;;;;;5.42;39.17;95457.81;5045802;28;20028;-77
2024/02/02 00:44:45;;;;;;;5.90;3.83;;;;;;;5.44;39.20;95469.09;5045251;28;20033;-77
2024/02/02 00:47:11;;;;;;;6.70;3.88;;;;;;;5.47;39.55;95458.19;5047269;28;20518;-77
2024/02/02 00:49:36;;;;;;;10.00;4.30;;;;;;;5.57;39.57;95460.13;5045485;28;20503;-77
2024/02/02 00:52:02;;;;;;;8.65;4.10;;;;;;;5.57;39.70;95457.41;5028656;28;20104;-77
2024/02/02 00:54:28;;;;;;;9.88;4.60;;;;;;;5.56;40.26;95455.84;5045729;28;20032;-77
2024/02/02 00:56:53;;;;;;;9.68;4.63;;;;;;;5.63;39.93;95451.56;5045181;28;20206;-78
2024/02/02 00:59:18;;;;;;;7.45;4.28;;;;;;;5.69;40.29;95442.56;5046100;28;20698;-78
2024/02/02 01:01:44;;;;;;;8.15;4.32;;;;;;;5.68;39.89;95441.03;5045293;28;20029;-77
2024/02/02 01:04:09;;;;;;;6.68;3.78;;;;;;;5.68;40.13;95435.56;5046816;28;20033;-77
2024/02/02 01:06:35;;;;;;;8.00;4.10;;;;;;;5.74;39.93;95438.69;5046671;28;20033;-77
2024/02/02 01:09:00;;;;;;;5.63;3.85;;;;;;;5.77;39.35;95432.41;5045219;28;20044;-79
2024/02/02 01:11:26;;;;;;;10.50;5.18;;;;;;;5.89;39.07;95437.44;5045716;28;20028;-77
2024/02/02 01:13:52;;;;;;;11.50;5.03;;;;;;;5.93;38.54;95438.25;5044734;28;20029;-78
2024/02/02 01:16:17;;;;;;;7.93;4.60;;;;;;;5.91;38.14;95429.69;5047106;28;20169;-77
2024/02/02 01:18:43;;;;;;;8.98;4.97;;;;;;;6.01;37.84;95428.09;5046064;28;20100;-78
2024/02/02 01:21:08;;;;;;;8.73;4.40;;;;;;;5.99;37.88;95433.16;5045372;28;20066;-77
2024/02/02 01:23:34;;;;;;;7.45;4.70;;;;;;;5.94;37.74;95437.06;5046218;28;20025;-76
2024/02/02 01:26:00;;;;;;;7.07;4.95;;;;;;;5.99;37.63;95433.94;5045493;28;20029;-77
2024/02/02 01:28:25;;;;;;;8.38;4.75;;;;;;;6.04;37.53;95436.28;5046519;28;20031;-79
2024/02/02 01:30:51;;;;;;;8.50;5.05;;;;;;;6.08;37.38;95426.13;5046082;28;20391;-77
2024/02/02 01:33:16;;;;;;;8.10;4.85;;;;;;;6.06;37.36;95433.91;5046817;28;20312;-77
2024/02/02 01:35:42;;;;;;;9.48;5.10;;;;;;;6.07;37.30;95440.16;5045790;28;20120;-78
2024/02/02 01:38:07;;;;;;;9.40;5.65;;;;;;;6.11;37.20;95425.31;5046653;28;20112;-78
2024/02/02 01:40:33;;;;;;;7.80;5.38;;;;;;;6.18;37.15;95429.97;5045925;28;20104;-77
2024/02/02 01:42:59;;;;;;;9.10;5.70;;;;;;;6.11;37.24;95419.09;5044672;28;20087;-77
2024/02/02 01:45:24;;;;;;;10.40;5.45;;;;;;;6.15;37.45;95421.81;5047902;28;20096;-77
2024/02/02 01:47:50;;;;;;;10.05;6.00;;;;;;;6.15;37.39;95417.13;5051509;28;20479;-77
2024/02/02 01:50:15;;;;;;;10.68;5.55;;;;;;;6.17;37.32;95430.38;5051809;28;20037;-77
2024/02/02 01:52:41;;;;;;;7.68;5.18;;;;;;;6.19;37.28;95433.47;5034589;28;20112;-76
2024/02/02 01:55:07;;;;;;;6.85;5.25;;;;;;;6.16;37.07;95431.56;5051667;28;20025;-77
2024/02/02 01:57:32;;;;;;;10.45;5.60;;;;;;;6.17;36.93;95425.69;5034265;28;20024;-78
2024/02/02 01:59:58;;;;;;;9.38;6.05;;;;;;;6.16;36.92;95426.09;5051644;28;20104;-77
2024/02/02 02:02:23;;;;;;;9.07;5.35;;;;;;;6.15;37.03;95427.28;5052416;28;20036;-78
2024/02/02 02:04:49;;;;;;;8.95;5.95;;;;;;;6.18;37.25;95429.19;5051413;28;20115;-77
2024/02/02 02:07:15;;;;;;;9.80;5.65;;;;;;;6.15;37.33;95425.31;5051482;28;20032;-77
2024/02/02 02:09:42;;;;;;;10.23;6.07;;;;;;;6.17;37.65;95427.66;5051209;28;20056;-77
2024/02/02 02:12:07;;;;;;;8.20;5.22;;;;;;;6.22;37.79;95429.97;5051377;28;20556;-76
2024/02/02 02:14:32;;;;;;;9.38;5.53;;;;;;;6.23;37.92;95435.03;5052197;28;20095;-77
2024/02/02 02:16:58;;;;;;;8.38;5.70;;;;;;;6.29;38.21;95438.91;5051807;28;20025;-77
2024/02/02 02:19:23;;;;;;;10.48;5.95;;;;;;;6.34;38.72;95441.22;5052304;28;20028;-76
2024/02/02 02:21:49;;;;;;;8.88;4.97;;;;;;;6.33;39.07;95441.63;5052989;28;20029;-76
2024/02/02 02:24:14;;;;;;;8.18;5.32;;;;;;;6.29;39.15;95435.41;5052494;28;20044;-77
2024/02/02 02:26:41;;;;;;;8.32;5.53;;;;;;;6.27;39.35;95429.56;5051093;28;20495;-78
2024/02/02 02:29:06;;;;;;;7.57;5.18;;;;;;;6.34;39.46;95435.75;5051242;28;20043;-76
2024/02/02 02:31:32;;;;;;;8.68;5.22;;;;;;;6.41;39.40;95436.91;5052285;28;20769;-77
2024/02/02 02:33:57;;;;;;;9.32;6.40;;;;;;;6.36;39.12;95433.41;5052767;28;20114;-78
2024/02/02 02:36:23;;;;;;;9.27;5.88;;;;;;;6.43;38.30;95429.88;5051077;28;20035;-77
2024/02/02 02:38:49;;;;;;;9.20;5.55;;;;;;;6.50;37.91;95438.03;5051600;28;20036;-78
2024/02/02 02:41:15;;;;;;;11.88;6.18;;;;;;;6.45;37.48;95429.47;5050466;28;20064;-77
2024/02/02 02:43:40;;;;;;;15.57;6.38;;;;;;;6.45;37.46;95434.94;5050837;28;20029;-76
2024/02/02 02:46:06;;;;;;;12.18;6.20;;;;;;;6.33;37.50;95428.75;5051009;28;20051;-76
2024/02/02 02:48:33;;;;;;;9.63;6.05;;;;;;;6.37;37.62;95432.25;5052056;28;20562;-77
2024/02/02 02:50:58;;;;;;;10.43;6.28;;;;;;;6.37;37.60;95434.19;5051121;28;20541;-77
2024/02/02 02:53:23;;;;;;;11.70;6.45;;;;;;;6.31;37.83;95430.34;5051814;28;20108;-77
2024/02/02 02:55:49;;;;;;;11.13;6.00;;;;;;;6.41;37.75;95434.16;5052833;28;20470;-78
2024/02/02 02:58:14;;;;;;;10.82;6.65;;;;;;;6.37;38.02;95423.28;5029863;28;20087;-76
2024/02/02 03:00:40;;;;;;;11.32;6.78;;;;;;;6.35;37.92;95431.84;5049387;28;20116;-78
2024/02/02 03:03:05;;;;;;;11.50;6.78;;;;;;;6.44;38.12;95430.66;5047173;28;20576;-77
2024/02/02 03:05:31;;;;;;;10.40;7.18;;;;;;;6.33;38.37;95427.97;5047686;28;20033;-77
2024/02/02 03:07:56;;;;;;;11.10;6.80;;;;;;;6.32;38.34;95429.94;5047611;28;20029;-77
2024/02/02 03:10:25;;;;;;;11.05;6.68;;;;;;;6.34;38.53;95426.78;5047336;28;20033;-77
2024/02/02 03:12:54;;;;;;;11.35;7.18;;;;;;;6.32;38.69;95423.69;5031722;28;20025;-76
2024/02/02 03:15:19;;;;;;;10.82;7.18;;;;;;;6.39;38.75;95429.09;5048302;28;20082;-77
2024/02/02 03:17:45;;;;;;;11.63;7.00;;;;;;;6.43;38.92;95429.88;5047711;28;20021;-76
2024/02/02 03:20:11;;;;;;;10.32;6.55;;;;;;;6.46;39.33;95420.09;5047054;28;20113;-77
2024/02/02 03:22:38;;;;;;;11.80;7.03;;;;;;;6.42;39.52;95430.25;5047499;28;20492;-77
2024/02/02 03:25:05;;;;;;;11.10;6.82;;;;;;;6.49;39.95;95435.72;5047298;28;20102;-77
2024/02/02 03:27:30;;;;;;;14.13;7.32;;;;;;;6.41;40.21;95434.94;5047054;28;20044;-77
2024/02/02 03:29:55;;;;;;;12.00;7.97;;;;;;;6.35;40.65;95425.63;5030858;28;20021;-78
2024/02/02 03:32:21;;;;;;;12.20;7.43;;;;;;;6.33;41.02;95417.81;5048052;28;20074;-76
2024/02/02 03:34:46;;;;;;;19.92;8.32;;;;;;;6.22;41.50;95425.28;5047486;28;20349;-77
2024/02/02 03:37:12;;;;;;;17.42;8.50;;;;;;;6.10;42.28;95426.50;5046721;28;20043;-78
2024/02/02 03:39:37;;;;;;;11.82;7.88;;;;;;;6.08;42.74;95433.53;5047335;28;20029;-77
2024/02/02 03:42:04;;;;;;;15.15;8.20;;;;;;;6.07;42.76;95434.69;5029690;28;20029;-78
2024/02/02 03:44:30;;;;;;;12.65;7.90;;;;;;;6.06;42.77;95423.00;5047071;28;20060;-78
2024/02/02 03:46:55;;;;;;;12.85;7.45;;;;;;;6.07;42.89;95443.66;5047043;28;20086;-78
2024/02/02 03:49:21;;;;;;;14.52;8.68;;;;;;;6.05;43.03;95443.28;5046481;28;20045;-77
2024/02/02 03:51:46;;;;;;;14.85;8.50;;;;;;;6.13;43.32;95452.22;5047228;28;20069;-77
2024/02/02 03:54:11;;;;;;;12.73;8.63;;;;;;;6.14;43.50;95453.78;5047288;28;20451;-77
2024/02/02 03:56:39;;;;;;;11.73;8.55;;;;;;;6.10;43.97;95453.78;5048367;28;20033;-78
2024/02/02 03:59:05;;;;;;;16.20;9.43;;;;;;;6.16;43.96;95472.50;5047689;28;20021;-78
2024/02/02 04:01:30;;;;;;;13.52;9.25;;;;;;;6.13;44.19;95468.59;5046732;28;20033;-77
2024/02/02 04:03:56;;;;;;;18.00;9.73;;;;;;;6.06;44.49;95446.78;5047763;28;20056;-76
2024/02/02 04:06:21;;;;;;;13.23;8.27;;;;;;;6.12;44.75;95472.50;5047609;28;20048;-76
2024/02/02 04:08:47;;;;;;;12.68;8.57;;;;;;;6.06;44.94;95468.63;5045852;28;20032;-77
2024/02/02 04:11:12;;;;;;;14.10;9.70;;;;;;;6.06;44.72;95479.53;5029034;28;20025;-77
2024/02/02 04:13:37;;;;;;;19.13;9.95;;;;;;;5.98;44.67;95480.75;5048291;28;20094;-77
2024/02/02 04:16:03;;;;;;;14.98;9.45;;;;;;;6.02;44.67;95497.88;5045920;28;20503;-77
2024/02/02 04:18:29;;;;;;;14.63;9.15;;;;;;;6.00;44.53;95490.09;5046423;28;20025;-77
2024/02/02 04:20:54;;;;;;;18.23;10.70;;;;;;;6.08;44.59;95485.41;5046325;28;20123;-77
2024/02/02 04:23:20;;;;;;;17.27;10.43;;;;;;;6.02;44.55;95495.94;5045713;28;20037;-77
2024/02/02 04:25:45;;;;;;;15.68;9.90;;;;;;;6.06;44.40;95504.88;5046205;28;20336;-78
2024/02/02 04:28:11;;;;;;;15.27;10.10;;;;;;;6.02;45.07;95512.31;5045596;28;20112;-77
2024/02/02 04:30:36;;;;;;;16.02;10.50;;;;;;;5.97;44.94;95515.44;5047900;28;20052;-77
2024/02/02 04:33:03;;;;;;;14.68;10.18;;;;;;;5.89;45.11;95513.84;5045543;28;20032;-77
2024/02/02 04:35:34;;;;;;;16.42;11.50;;;;;;;5.87;46.75;95508.03;5046530;28;20114;-77
2024/02/02 04:38:00;;;;;;;20.60;12.20;;;;;;;5.86;47.18;95506.47;5029734;28;20025;-79
2024/02/02 04:40:25;;;;;;;20.85;13.13;;;;;;;5.82;47.98;95506.47;5046200;28;20112;-78
2024/02/02 04:42:50;;;;;;;23.08;12.95;;;;;;;5.77;47.91;95503.34;5047001;28;20060;-78
2024/02/02 04:45:16;;;;;;;19.80;13.25;;;;;;;5.73;47.99;95503.34;5046542;28;20482;-78
2024/02/02 04:47:42;;;;;;;20.27;13.55;;;;;;;5.75;47.80;95505.72;5047654;28;20395;-77
2024/02/02 04:50:07;;;;;;;25.80;14.05;;;;;;;5.65;48.10;95514.66;5046112;28;20609;-77
2024/02/02 04:52:33;;;;;;;20.75;13.52;;;;;;;5.54;48.54;95512.72;5047797;28;20476;-79
2024/02/02 04:54:58;;;;;;;24.27;14.70;;;;;;;5.50;48.82;95506.47;5028338;28;20106;-78
2024/02/02 04:57:27;;;;;;;18.67;12.63;;;;;;;5.51;49.14;95518.19;5045690;28;20562;-78
2024/02/02 04:59:54;;;;;;;21.60;13.45;;;;;;;5.52;49.02;95517.03;5045549;28;20025;-78
2024/02/02 05:02:20;;;;;;;19.50;12.95;;;;;;;5.43;49.82;95531.03;5046348;28;20025;-76
2024/02/02 05:04:45;;;;;;;18.77;12.52;;;;;;;5.40;49.83;95528.31;5028968;28;20040;-78
2024/02/02 05:07:11;;;;;;;18.45;11.70;;;;;;;5.39;50.21;95532.19;5046200;28;20388;-75
2024/02/02 05:09:36;;;;;;;19.45;12.68;;;;;;;5.38;50.50;95536.88;5029247;28;20021;-76
2024/02/02 05:12:02;;;;;;;16.65;11.60;;;;;;;5.35;50.55;95532.19;5046051;28;20111;-75
2024/02/02 05:14:27;;;;;;;21.27;12.18;;;;;;;5.32;50.98;95538.41;5045815;28;20082;-76
2024/02/02 05:16:52;;;;;;;16.60;11.35;;;;;;;5.36;50.92;95552.84;5046493;28;20169;-76
2024/02/02 05:19:18;;;;;;;16.58;11.18;;;;;;;5.32;51.01;95538.41;5044962;28;20025;-76
2024/02/02 05:21:43;;;;;;;18.02;12.68;;;;;;;5.36;51.52;95538.44;5045313;28;20124;-76
2024/02/02 05:24:09;;;;;;;21.92;12.95;;;;;;;5.38;51.79;95542.31;5046015;28;20025;-76
2024/02/02 05:26:35;;;;;;;18.83;12.60;;;;;;;5.40;52.00;95555.59;5047209;28;20095;-76
2024/02/02 05:29:00;;;;;;;18.35;13.50;;;;;;;5.32;53.02;95557.50;5045470;28;20174;-79
2024/02/02 05:31:26;;;;;;;19.60;13.68;;;;;;;5.32;53.45;95560.22;5045069;28;20068;-77
2024/02/02 05:33:51;;;;;;;20.58;13.27;;;;;;;5.29;54.02;95569.97;5042401;28;20746;-77
2024/02/02 05:36:16;;;;;;;17.98;13.07;;;;;;;5.17;54.49;95562.16;5045787;28;20031;-78
2024/02/02 05:38:42;;;;;;;22.50;14.63;;;;;;;5.10;54.84;95564.09;5046566;28;20041;-77
2024/02/02 05:41:07;;;;;;;20.98;14.80;;;;;;;5.12;55.72;95575.41;5044050;28;20165;-77
2024/02/02 05:43:33;;;;;;;21.13;14.18;;;;;;;5.04;56.10;95574.56;5045006;28;20029;-77
2024/02/02 05:45:58;;;;;;;27.88;16.75;;;;;;;4.97;57.13;95580.78;5044703;28;20138;-79
2024/02/02 05:48:24;;;;;;;28.08;16.98;;;;;;;4.83;57.27;95574.53;5046660;28;20021;-78
2024/02/02 05:50:49;;;;;;;28.90;17.02;;;;;;;4.79;57.55;95578.00;5043625;28;20388;-78
2024/02/02 05:53:15;;;;;;;26.80;16.85;;;;;;;4.82;57.82;95590.09;5044635;28;20025;-78
2024/02/02 05:55:41;;;;;;;24.48;15.70;;;;;;;4.83;57.84;95597.09;5044004;28;20452;-78
2024/02/02 05:58:07;;;;;;;20.42;14.90;;;;;;;4.86;58.22;95588.16;5044068;28;20112;-78
2024/02/02 06:00:32;;;;;;;19.65;13.88;;;;;;;4.76;58.52;95586.19;5027079;28;20021;-75
2024/02/02 06:02:58;;;;;;;23.50;14.20;;;;;;;4.86;58.49;95604.50;5045089;28;20029;-75
2024/02/02 06:05:23;;;;;;;22.27;14.55;;;;;;;4.83;58.39;95610.72;5026767;28;20029;-75
2024/02/02 06:07:49;;;;;;;18.30;12.75;;;;;;;4.78;58.61;95600.19;5044454;28;20029;-75
2024/02/02 06:10:14;;;;;;;20.65;14.38;;;;;;;4.77;59.00;95612.25;5045268;28;20033;-74
2024/02/02 06:12:40;;;;;;;22.55;15.05;;;;;;;4.64;59.37;95591.94;5043311;28;20044;-74
2024/02/02 06:15:07;;;;;;;22.58;14.35;;;;;;;4.38;59.46;95576.66;5043690;28;20403;-74
2024/02/02 06:17:32;;;;;;;20.33;14.60;;;;;;;4.55;59.66;95602.44;5043223;28;20032;-75
2024/02/02 06:19:58;;;;;;;20.80;13.40;;;;;;;4.55;59.65;95607.88;5027516;28;20063;-74
2024/02/02 06:22:23;;;;;;;21.80;13.73;;;;;;;4.49;60.17;95616.41;5026500;28;20036;-74
2024/02/02 06:24:49;;;;;;;20.20;14.70;;;;;;;4.52;60.28;95610.19;5043327;28;20547;-74
2024/02/02 06:27:15;;;;;;;24.23;15.10;;;;;;;4.55;60.07;95622.25;5026959;28;20029;-74
2024/02/02 06:29:41;;;;;;;21.08;15.85;;;;;;;4.46;60.47;95628.03;5043287;28;20060;-74
2024/02/02 06:32:06;;;;;;;21.55;14.43;;;;;;;4.44;60.55;95635.81;5044643;28;20060;-75
2024/02/02 06:34:32;;;;;;;22.35;14.90;;;;;;;4.48;60.82;95617.56;5048207;28;20049;-75
2024/02/02 06:36:57;;;;;;;22.67;15.05;;;;;;;4.55;60.94;95629.66;5048792;28;20029;-75
2024/02/02 06:39:23;;;;;;;21.77;15.20;;;;;;;4.55;60.64;95618.75;5048001;28;20036;-75
2024/02/02 06:41:49;;;;;;;24.85;17.48;;;;;;;4.59;60.61;95623.06;5048113;28;20029;-74
2024/02/02 06:44:15;;;;;;;26.83;18.02;;;;;;;4.59;60.91;95625.00;5046767;28;20036;-75
2024/02/02 06:46:40;;;;;;;25.95;17.25;;;;;;;4.45;61.26;95618.31;5048188;28;20033;-75
2024/02/02 06:49:06;;;;;;;24.08;16.27;;;;;;;4.54;60.92;95620.72;5048210;28;20049;-74
2024/02/02 06:51:31;;;;;;;27.50;16.60;;;;;;;4.50;61.01;95626.13;5046786;28;20048;-74
2024/02/02 06:53:57;;;;;;;24.58;15.90;;;;;;;4.45;60.89;95621.03;5048831;28;20388;-74
2024/02/02 06:56:35;;;;;;;25.02;16.63;;;;;;;4.65;60.59;95648.00;5046317;28;20029;-76
2024/02/02 06:59:00;;;;;;;25.80;17.25;;;;;;;4.63;60.48;95648.34;5048101;28;20029;-75
2024/02/02 07:01:27;;;;;;;28.52;18.05;;;;;;;4.64;59.93;95647.19;5046440;28;20025;-75
2024/02/02 07:03:52;;;;;;;24.08;14.77;;;;;;;4.76;59.85;95644.16;5046268;28;20508;-75
2024/02/02 07:06:18;;;;;;;23.85;15.70;;;;;;;4.82;59.51;95639.13;5047993;28;20029;-74
2024/02/02 07:08:43;;;;;;;22.77;15.20;;;;;;;4.85;59.19;95648.47;5047935;28;20088;-75
2024/02/02 07:11:11;;;;;;;23.60;15.38;;;;;;;4.90;59.21;95662.50;5048279;28;20468;-74
2024/02/02 07:13:48;;;;;;;23.13;15.10;;;;;;;4.86;58.88;95658.97;5047679;28;20511;-75
2024/02/02 07:16:21;;;;;;;21.02;14.77;;;;;;;4.92;58.92;95675.75;5046364;28;20025;-75
2024/02/02 07:18:46;;;;;;;23.97;14.73;;;;;;;4.92;58.75;95670.28;5046540;28;20035;-75
2024/02/02 07:21:13;;;;;;;21.73;15.07;;;;;;;4.86;58.88;95671.81;5045868;28;20271;-75
2024/02/02 07:23:41;;;;;;;22.67;14.43;;;;;;;4.86;58.77;95683.50;5046933;28;20112;-75
2024/02/02 07:26:12;;;;;;;23.10;15.23;;;;;;;4.86;58.89;95677.28;5045808;28;20027;-76
2024/02/02 07:28:38;;;;;;;23.33;15.20;;;;;;;4.86;58.74;95680.78;5046714;28;20017;-74
2024/02/02 07:31:06;;;;;;;24.05;15.00;;;;;;;4.89;58.38;95681.97;5045891;28;20025;-75
2024/02/02 07:33:45;;;;;;;26.48;15.95;;;;;;;4.97;58.24;95676.16;5029713;28;20029;-75
2024/02/02 07:36:29;;;;;;;23.33;15.23;;;;;;;4.92;58.51;95681.97;5046145;28;20102;-74
2024/02/02 07:38:55;;;;;;;26.98;16.85;;;;;;;4.92;58.47;95679.25;5045853;28;20029;-74
2024/02/02 07:41:28;;;;;;;26.10;16.88;;;;;;;4.95;58.78;95675.78;5046146;28;20116;-77
2024/02/02 07:44:01;;;;;;;26.05;15.80;;;;;;;4.89;59.10;95685.47;5046666;28;20033;-74
2024/02/02 07:46:27;;;;;;;26.57;16.50;;;;;;;4.92;59.05;95681.19;5047276;28;20032;-75
2024/02/02 07:48:53;;;;;;;26.38;16.70;;;;;;;4.92;58.72;95681.19;5045667;28;20296;-75
2024/02/02 07:51:19;;;;;;;23.33;16.25;;;;;;;4.98;58.87;95680.44;5045676;28;20103;-77
2024/02/02 07:53:45;;;;;;;20.85;14.20;;;;;;;4.86;59.32;95683.50;5029499;28;20120;-77
2024/02/02 07:56:12;;;;;;;23.90;16.08;;;;;;;4.80;59.67;95688.53;5046760;28;20036;-76
2024/02/02 07:58:39;;;;;;;24.83;16.65;;;;;;;4.84;59.60;95680.38;5045985;28;20025;-75
2024/02/02 08:01:06;;;;;;;22.52;14.77;;;;;;;4.95;59.16;95681.22;5046810;28;20114;-75
2024/02/02 08:03:33;;;;;;;22.13;15.60;;;;;;;5.01;59.11;95681.63;5045712;28;20440;-76
2024/02/02 08:05:58;;;;;;;21.13;15.73;;;;;;;5.09;58.85;95668.81;5046886;28;20133;-76
2024/02/02 08:08:24;;;;;;;20.48;14.38;;;;;;;5.13;58.59;95675.84;5045293;28;20021;-76
2024/02/02 08:10:49;;;;;;;23.67;13.95;;;;;;;5.17;58.42;95684.81;5047246;28;20112;-76
2024/02/02 08:13:16;;;;;;;21.02;14.90;;;;;;;5.22;58.01;95676.28;5045050;28;20462;-77
2024/02/02 08:15:41;;;;;;;22.02;14.50;;;;;;;5.16;58.03;95677.00;5045855;28;20037;-75
2024/02/02 08:18:08;;;;;;;22.25;15.43;;;;;;;5.23;58.08;95669.66;5044669;28;20519;-75
2024/02/02 08:20:34;;;;;;;24.67;15.70;;;;;;;5.23;57.93;95686.03;5045599;28;20025;-75
2024/02/02 08:23:00;;;;;;;21.85;14.10;;;;;;;5.32;57.54;95694.59;5045017;28;20037;-75
2024/02/02 08:25:25;;;;;;;22.15;14.32;;;;;;;5.35;57.41;95673.19;5044994;28;20044;-77
2024/02/02 08:27:50;;;;;;;19.60;13.02;;;;;;;5.36;57.17;95674.75;5045208;28;20037;-76
2024/02/02 08:30:16;;;;;;;20.17;12.95;;;;;;;5.37;56.90;95688.00;5044735;28;20025;-76
2024/02/02 08:32:43;;;;;;;22.85;13.45;;;;;;;5.46;56.04;95682.19;5046698;28;20505;-76
2024/02/02 08:35:09;;;;;;;18.73;11.80;;;;;;;5.52;55.27;95689.63;5045887;28;20021;-76
2024/02/02 08:37:34;;;;;;;18.05;12.25;;;;;;;5.67;54.29;95674.03;5045075;28;20021;-76
2024/02/02 08:40:00;;;;;;;13.63;9.20;;;;;;;5.78;52.65;95676.78;5051556;28;20035;-78
2024/02/02 08:42:26;;;;;;;15.43;9.65;;;;;;;7.47;48.77;95664.44;5064274;28;20032;-75
2024/02/02 08:44:53;;;;;;;13.27;8.88;;;;;;;8.96;44.97;95684.41;5065929;28;20039;-76
2024/02/02 08:47:19;;;;;;;13.30;8.63;;;;;;;9.89;42.21;95675.03;5065999;28;20058;-76
2024/02/02 08:49:55;;;;;;;12.63;8.27;;;;;;;10.94;38.98;95664.69;5048172;28;20469;-76
2024/02/02 08:52:40;;;;;;;12.07;8.38;;;;;;;11.90;36.79;95660.78;5065656;28;20024;-76
2024/02/02 08:55:20;;;;;;;12.55;8.38;;;;;;;12.60;34.97;95664.25;5064389;28;20131;-78
2024/02/02 08:57:52;;;;;;;10.00;7.57;;;;;;;12.97;34.20;95679.47;5066023;28;20025;-77
2024/02/02 09:00:33;;;;;;;13.18;9.00;;;;;;;13.48;33.18;95672.19;5065249;28;20032;-78
2024/02/02 09:03:24;;;;;;;10.70;8.05;;;;;;;14.03;31.58;95683.97;5066124;28;20028;-77
2024/02/02 09:05:51;;;;;;;12.05;7.95;;;;;;;14.86;30.65;95687.72;5064163;28;20107;-76
2024/02/02 09:08:16;;;;;;;10.20;7.78;;;;;;;15.35;29.42;95695.50;5065574;28;20028;-77
2024/02/02 09:10:44;;;;;;;9.98;7.65;;;;;;;15.66;28.71;95690.09;5065549;28;20385;-76
2024/02/02 09:13:29;;;;;;;10.40;7.50;;;;;;;16.52;27.29;95679.25;5065397;28;20500;-75
2024/02/02 09:15:55;;;;;;;11.27;7.53;;;;;;;17.14;26.04;95689.41;5048046;28;20114;-75
2024/02/02 09:18:32;;;;;;;11.52;7.82;;;;;;;17.35;25.75;95690.50;5065278;28;20032;-76
2024/02/02 09:20:57;;;;;;;13.95;7.70;;;;;;;17.93;24.56;95686.75;5064413;28;20495;-75
2024/02/02 09:23:24;;;;;;;11.27;7.85;;;;;;;18.37;23.92;95700.25;5046822;28;20112;-77
2024/02/02 09:25:49;;;;;;;8.20;6.97;;;;;;;18.23;24.01;95685.75;5055885;28;20055;-75
2024/02/02 09:28:24;;;;;;;10.40;6.93;;;;;;;18.64;23.91;95691.78;5064984;28;20023;-75
2024/02/02 09:31:03;;;;;;;8.48;6.63;;;;;;;19.17;23.01;95691.19;5065239;28;20021;-77
2024/02/02 09:33:31;;;;;;;11.52;8.57;;;;;;;19.65;22.58;95707.84;5065526;28;20028;-76
2024/02/02 09:36:03;;;;;;;9.63;7.35;;;;;;;20.54;22.04;95680.75;5065341;28;20024;-77
2024/02/02 09:38:29;;;;;;;9.07;7.32;;;;;;;20.08;22.09;95689.63;5064105;28;20031;-77
2024/02/02 09:41:00;;;;;;;9.98;7.60;;;;;;;19.28;22.73;95694.19;5063680;28;20055;-77
2024/02/02 09:43:44;;;;;;;10.07;8.00;;;;;;;19.46;22.06;95676.53;5064889;28;20171;-77
2024/02/02 09:46:20;;;;;;;11.45;7.50;;;;;;;20.48;21.21;95685.47;5065750;28;20036;-77
2024/02/02 09:49:01;;;;;;;11.93;7.57;;;;;;;20.65;20.91;95675.34;5065088;28;20147;-76
2024/02/02 09:51:37;;;;;;;8.23;7.22;;;;;;;21.19;20.62;95667.41;5063856;28;20483;-76
2024/02/02 09:54:15;;;;;;;8.25;7.15;;;;;;;20.52;20.68;95682.47;5047139;28;20055;-76
2024/02/02 09:56:46;;;;;;;9.80;6.97;;;;;;;19.86;21.18;95686.44;5063893;28;20123;-76
2024/02/02 09:59:25;;;;;;;8.90;7.30;;;;;;;18.97;22.49;95671.50;5065302;28;20078;-77
2024/02/02 10:01:56;;;;;;;9.20;6.80;;;;;;;20.17;21.39;95677.59;5064941;28;20032;-76
2024/02/02 10:04:58;;;;;;;8.27;6.90;;;;;;;18.69;22.42;95679.22;5065018;28;20051;-77
2024/02/02 10:07:27;;;;;;;9.07;6.90;;;;;;;18.39;23.25;95672.72;5050941;28;20032;-78
2024/02/02 10:10:16;;;;;;;8.27;6.82;;;;;;;17.57;24.08;95677.22;5069280;28;20028;-78
2024/02/02 10:12:50;;;;;;;9.32;6.65;;;;;;;16.17;25.90;95667.53;5051465;28;20036;-79
2024/02/02 10:15:32;;;;;;;11.70;7.53;;;;;;;15.52;26.82;95669.16;5068793;28;20028;-78
2024/02/02 10:17:58;;;;;;;11.18;7.55;;;;;;;15.08;27.48;95662.81;5067963;28;20132;-78
2024/02/02 10:20:37;;;;;;;11.05;7.55;;;;;;;14.57;28.29;95674.81;5069336;28;20447;-78
2024/02/02 10:23:22;;;;;;;9.68;6.82;;;;;;;13.97;29.16;95665.63;5067211;28;20025;-78
2024/02/02 10:25:47;;;;;;;9.35;7.20;;;;;;;13.39;30.06;95654.69;5068992;28;20114;-78
2024/02/02 10:28:23;;;;;;;8.98;6.88;;;;;;;12.94;30.86;95670.06;5068182;28;20459;-78
2024/02/02 10:31:21;;;;;;;12.25;7.15;;;;;;;12.44;31.52;95665.81;5067563;28;20028;-78
2024/02/02 10:33:52;;;;;;;9.25;6.70;;;;;;;11.98;32.80;95674.38;5068931;28;20032;-79
2024/02/02 10:36:35;;;;;;;10.18;7.38;;;;;;;11.45;33.79;95663.28;5068094;28;20029;-79
2024/02/02 10:39:30;;;;;;;9.40;6.78;;;;;;;11.23;34.30;95673.16;5068770;28;20059;-77
2024/02/02 10:41:58;;;;;;;9.88;7.03;;;;;;;10.85;35.11;95666.03;5070192;28;20036;-76
2024/02/02 10:44:45;;;;;;;9.05;6.30;;;;;;;11.11;34.62;95674.56;5068181;28;20056;-76
2024/02/02 10:47:20;;;;;;;9.70;6.60;;;;;;;10.62;35.19;95677.81;5068115;28;20024;-80
2024/02/02 10:50:13;;;;;;;12.88;7.00;;;;;;;10.45;35.45;95672.63;5068028;28;20051;-78
2024/02/02 10:52:50;;;;;;;10.32;7.30;;;;;;;9.85;36.70;95681.34;5050091;28;20024;-81
2024/02/02 10:55:19;;;;;;;9.73;6.10;;;;;;;9.44;37.32;95672.47;5068374;28;20111;-79
2024/02/02 10:57:58;;;;;;;9.60;6.10;;;;;;;9.19;37.99;95664.56;5068178;28;20024;-79
2024/02/02 11:00:25;;;;;;;9.73;6.68;;;;;;;8.91;38.43;95655.47;5068331;28;20032;-79
2024/02/02 11:03:18;;;;;;;10.10;6.65;;;;;;;8.73;39.03;95674.06;5066736;28;20051;-79
2024/02/02 11:06:04;;;;;;;8.60;6.70;;;;;;;8.48;39.76;95669.59;5066601;28;20048;-79
2024/02/02 11:08:34;;;;;;;9.63;6.80;;;;;;;8.31;40.24;95672.44;5067111;28;20063;-78
2024/02/02 11:11:03;;;;;;;10.15;7.63;;;;;;;8.14;40.78;95676.88;5049636;28;20025;-77
2024/02/02 11:14:04;;;;;;;9.95;6.85;;;;;;;8.11;41.12;95677.72;5068156;28;20597;-77
2024/02/02 11:16:53;;;;;;;9.95;7.22;;;;;;;8.01;41.55;95664.88;5067992;28;20148;-78
2024/02/02 11:19:46;;;;;;;10.20;7.53;;;;;;;7.89;41.97;95679.81;5066785;28;20028;-77
2024/02/02 11:22:25;;;;;;;12.82;7.65;;;;;;;7.69;42.36;95672.13;5068061;28;20451;-76
2024/02/02 11:24:59;;;;;;;12.38;7.70;;;;;;;7.63;42.49;95671.00;5066520;28;20047;-77
2024/02/02 11:27:51;;;;;;;10.82;7.13;;;;;;;7.51;43.02;95674.16;5066240;28;20071;-77
2024/02/02 11:30:44;;;;;;;20.70;9.00;;;;;;;7.42;43.02;95676.56;5064002;28;20086;-76
2024/02/02 11:33:31;;;;;;;11.68;7.40;;;;;;;7.27;43.94;95666.84;5066147;28;20099;-77
2024/02/02 11:36:18;;;;;;;12.85;8.43;;;;;;;7.07;44.54;95675.53;5066198;28;20071;-77
2024/02/02 11:39:20;;;;;;;13.55;8.27;;;;;;;6.79;45.27;95681.88;5066651;28;20025;-76